Time;durP1;ratioP1;P1;durP2;ratioP2;P2;SDS_P1;SDS_P2;PMS_P1;PMS_P2;Temp;Humidity;BMP_temperature;BMP_pressure;BME280_temperature;BME280_humidity;BME280_pressure;Samples;Min_cycle;Max_cycle;Signal;HPM_P1;HPM_P2
2022/09/07 00:01:22;;;;;;;0.50;0.20;;;;;;;-145.06;100.00;60892.56;4617986;29;20039;-93
2022/09/07 00:04:06;;;;;;;0.10;0.10;;;;;;;-145.06;100.00;60892.56;4626030;29;20034;-91
2022/09/07 00:06:51;;;;;;;0.15;0.10;;;;;;;-145.06;100.00;60892.56;4633758;29;20026;-92
2022/09/07 00:09:30;;;;;;;0.10;0.10;;;;;;;-145.06;100.00;60892.56;4625949;29;20043;-92
2022/09/07 00:12:21;;;;;;;0.90;0.20;;;;;;;-145.06;100.00;60892.56;4645003;29;20046;-92
2022/09/07 00:15:07;;;;;;;0.47;0.20;;;;;;;-145.06;100.00;60892.56;4632498;29;20030;-91
2022/09/07 00:17:51;;;;;;;0.30;0.20;;;;;;;-145.06;100.00;60892.56;4639310;29;20034;-92
2022/09/07 00:20:43;;;;;;;0.25;0.15;;;;;;;-145.06;100.00;60892.56;4627317;29;20391;-91
2022/09/07 00:23:39;;;;;;;0.35;0.20;;;;;;;-145.06;100.00;60892.56;4622218;30;20031;-93
2022/09/07 00:26:34;;;;;;;0.35;0.05;;;;;;;-145.06;100.00;60892.56;4627422;29;20035;-93
2022/09/07 00:29:32;;;;;;;0.00;0.00;;;;;;;-145.06;100.00;60892.56;4615769;29;20039;-91
2022/09/07 00:32:20;;;;;;;0.90;0.20;;;;;;;-145.06;100.00;60892.56;4639713;29;20090;-91
2022/09/07 00:35:23;;;;;;;0.20;0.10;;;;;;;-145.06;100.00;60892.56;4639713;29;20293;-92
2022/09/07 00:38:29;;;;;;;0.40;0.10;;;;;;;-145.06;100.00;60892.56;4620101;29;20070;-92
2022/09/07 00:41:28;;;;;;;0.10;0.10;;;;;;;-145.06;100.00;60892.56;4640618;29;20039;-92
2022/09/07 00:44:38;;;;;;;;;;;;;;;-145.06;100.00;60892.56;4626996;29;20035;-91
2022/09/07 00:51:01;;;;;;;;;;;;;;;;;;;;;
2022/09/07 01:01:18;;;;;;;2.67;0.30;;;;;;;-145.06;100.00;60892.56;4626333;29;20335;-91
2022/09/07 01:04:35;;;;;;;;;;;;;;;;;;;;;
2022/09/07 01:07:44;;;;;;;0.17;0.10;;;;;;;-145.06;100.00;60892.56;4650863;29;20117;-92
2022/09/07 01:10:48;;;;;;;;;;;;;;;;;;;;;
2022/09/07 01:14:02;;;;;;;0.52;0.15;;;;;;;-145.06;100.00;60892.56;4651823;29;20042;-92
2022/09/07 01:17:29;;;;;;;;;;;;;;;;;;;;;
2022/09/07 01:20:53;;;;;;;;;;;;;;;;;;;;;
2022/09/07 01:31:36;;;;;;;0.15;0.10;;;;;;;-145.06;100.00;60892.56;4639354;29;20424;-93
2022/09/07 01:34:54;;;;;;;0.10;0.10;;;;;;;-145.06;100.00;60892.56;4616417;29;20093;-92
2022/09/07 01:38:30;;;;;;;;;;;;;;;;;;;;;
2022/09/07 01:41:50;;;;;;;0.50;0.10;;;;;;;-145.06;100.00;60892.56;4616003;30;20043;-92
2022/09/07 01:45:10;;;;;;;;;;;;;;;;;;;;;
2022/09/07 01:55:35;;;;;;;;;;;;;;;;;;;;;
2022/09/07 02:02:16;;;;;;;0.77;0.20;;;;;;;-145.06;100.00;60892.56;4646814;29;20074;-91
2022/09/07 02:06:02;;;;;;;;;;;;;;;;;;;;;
2022/09/07 02:09:03;;;;;;;;;;;;;;;;;;;;;
2022/09/07 02:12:23;;;;;;;;;;;;;;;;;;;;;
2022/09/07 02:15:39;;;;;;;;;;;;;;;;;;;;;
2022/09/07 02:19:13;;;;;;;0.20;0.17;;;;;;;-145.06;100.00;60892.56;4650830;29;20378;-93
2022/09/07 02:22:26;;;;;;;;;;;;;;;;;;;;;
2022/09/07 02:25:47;;;;;;;;;;;;;;;;;;;;;
2022/09/07 02:29:21;;;;;;;0.20;0.17;;;;;;;-145.06;100.00;60892.56;4625745;30;20031;-92
2022/09/07 02:40:30;;;;;;;;;;;;;;;;;;;;;
2022/09/07 04:15:52;;;;;;;0.30;0.20;;;;;;;-145.06;100.00;60892.56;4649368;29;20382;-91
2022/09/07 04:18:50;;;;;;;0.52;0.20;;;;;;;-145.06;100.00;60892.56;4604954;29;20154;-90
2022/09/07 04:25:16;;;;;;;0.10;0.10;;;;;;;-145.06;100.00;60892.56;4595196;29;20042;-92
2022/09/07 04:28:06;;;;;;;0.57;0.20;;;;;;;-145.06;100.00;60892.56;4627152;29;20034;-93
2022/09/07 04:35:08;;;;;;;0.47;0.20;;;;;;;-145.06;100.00;60892.56;4582662;30;20036;-91
2022/09/07 04:54:32;;;;;;;;;;;;;;;;;;;;;
2022/09/07 04:57:33;;;;;;;0.10;0.10;;;;;;;-145.06;100.00;60892.56;4558556;30;20512;-89
2022/09/07 06:50:11;;;;;;;0.13;0.10;;;;;;;-145.06;100.00;60892.56;5687909;24;20097;31
2022/09/07 22:37:41;;;;;;;0.85;0.20;;;;;;;-145.06;100.00;60892.56;5669365;24;20040;-91
